createdAt,value
2022-09-02T00:01:37.896Z,203.50
2022-09-02T00:04:08.348Z,198.65
2022-09-02T00:06:36.459Z,197.85
2022-09-02T00:09:06.427Z,215.15
2022-09-02T00:11:34.990Z,237.95
2022-09-02T00:14:06.150Z,186.20
2022-09-02T00:16:33.461Z,239.27
2022-09-02T00:19:02.503Z,223.70
2022-09-02T00:21:31.503Z,193.82
2022-09-02T00:23:58.343Z,215.13
2022-09-02T00:26:25.954Z,221.13
2022-09-02T00:28:55.988Z,199.43
2022-09-02T00:31:25.286Z,212.80
2022-09-02T00:33:52.261Z,224.67
2022-09-02T00:36:19.525Z,215.68
2022-09-02T00:38:46.702Z,219.77
2022-09-02T00:41:14.155Z,194.48
2022-09-02T00:43:48.747Z,204.32
2022-09-02T00:46:18.991Z,191.60
2022-09-02T00:49:08.646Z,218.20
2022-09-02T00:51:52.303Z,169.43
2022-09-02T00:54:22.984Z,186.05
2022-09-02T00:56:53.850Z,167.38
2022-09-02T00:59:54.571Z,155.70
2022-09-02T01:02:25.266Z,167.38
2022-09-02T01:04:56.592Z,165.93
2022-09-02T01:07:25.956Z,164.05
2022-09-02T01:09:55.475Z,187.90
2022-09-02T01:12:24.171Z,211.13
2022-09-02T01:14:51.741Z,217.97
2022-09-02T01:17:20.270Z,219.37
2022-09-02T01:19:53.554Z,177.60
2022-09-02T01:22:26.519Z,205.65
2022-09-02T01:24:57.798Z,224.10
2022-09-02T01:27:24.844Z,223.67
2022-09-02T01:29:54.566Z,193.00
2022-09-02T01:32:23.110Z,215.45
2022-09-02T01:34:51.062Z,185.10
2022-09-02T01:37:18.714Z,238.73
2022-09-02T01:39:46.795Z,224.00
2022-09-02T01:42:15.304Z,175.57
2022-09-02T01:44:45.595Z,222.52
2022-09-02T01:47:14.817Z,230.85
2022-09-02T01:49:42.142Z,214.18
2022-09-02T01:52:12.768Z,185.33
2022-09-02T01:54:40.349Z,204.73
2022-09-02T01:57:08.883Z,201.77
2022-09-02T01:59:35.754Z,230.90
2022-09-02T02:02:03.509Z,189.70
2022-09-02T02:04:31.405Z,210.07
2022-09-02T02:06:59.677Z,216.15
2022-09-02T02:09:26.635Z,210.05
2022-09-02T02:11:54.077Z,165.95
2022-09-02T02:14:21.563Z,209.03
2022-09-02T02:16:50.353Z,216.15
2022-09-02T02:19:18.922Z,225.55
2022-09-02T02:21:47.707Z,213.93
2022-09-02T02:24:14.738Z,194.93
2022-09-02T02:26:41.931Z,227.68
2022-09-02T02:29:10.103Z,230.00
2022-09-02T02:31:38.309Z,197.68
2022-09-02T02:34:05.843Z,209.20
2022-09-02T02:36:34.123Z,224.57
2022-09-02T02:39:01.561Z,198.98
2022-09-02T02:41:30.935Z,224.18
2022-09-02T02:43:58.190Z,222.80
2022-09-02T02:46:27.164Z,207.80
2022-09-02T02:48:54.022Z,214.02
2022-09-02T02:51:20.872Z,215.90
2022-09-02T02:53:48.703Z,192.30
2022-09-02T02:56:15.776Z,233.60
2022-09-02T02:58:42.588Z,194.52
2022-09-02T03:01:09.558Z,191.68
2022-09-02T03:03:36.759Z,206.27
2022-09-02T03:06:04.635Z,227.32
2022-09-02T03:08:32.059Z,149.70
2022-09-02T03:10:59.966Z,198.98
2022-09-02T03:13:32.184Z,170.70
2022-09-02T03:16:01.474Z,159.15
2022-09-02T03:18:28.448Z,172.07
2022-09-02T03:20:56.517Z,173.23
2022-09-02T03:23:23.983Z,171.25
2022-09-02T03:25:51.452Z,176.05
2022-09-02T03:28:29.883Z,186.00
2022-09-02T03:30:58.158Z,179.88
2022-09-02T03:33:26.478Z,181.02
2022-09-02T03:35:54.136Z,75.83
2022-09-02T03:38:22.693Z,119.32
2022-09-02T03:40:50.635Z,128.90
2022-09-02T03:43:18.720Z,125.97
2022-09-02T03:45:46.503Z,111.22
2022-09-02T03:48:15.274Z,139.95
2022-09-02T03:50:47.074Z,167.65
2022-09-02T03:53:19.353Z,170.27
2022-09-02T03:55:50.996Z,145.93
2022-09-02T03:58:20.079Z,166.73
2022-09-02T04:00:53.573Z,166.95
2022-09-02T04:03:22.505Z,166.65
2022-09-02T04:05:52.237Z,171.38
2022-09-02T04:08:19.948Z,172.82
2022-09-02T04:10:48.242Z,128.05
2022-09-02T04:13:17.019Z,175.93
2022-09-02T04:15:47.887Z,162.23
2022-09-02T04:18:17.333Z,160.32
2022-09-02T04:20:45.168Z,188.43
2022-09-02T04:23:12.881Z,180.83
2022-09-02T04:25:43.423Z,161.40
2022-09-02T04:28:12.931Z,180.68
2022-09-02T04:30:42.094Z,180.60
2022-09-02T04:33:10.432Z,174.50
2022-09-02T04:35:45.699Z,181.48
2022-09-02T04:38:16.502Z,181.88
2022-09-02T04:40:45.691Z,155.02
2022-09-02T04:43:14.199Z,163.90
2022-09-02T04:45:43.704Z,187.40
2022-09-02T04:48:13.202Z,174.55
2022-09-02T04:50:41.914Z,175.90
2022-09-02T04:53:09.870Z,180.77
2022-09-02T04:55:40.643Z,135.25
2022-09-02T04:58:10.961Z,159.00
2022-09-02T05:00:39.556Z,182.38
2022-09-02T05:03:11.675Z,185.43
2022-09-02T05:05:40.630Z,127.07
2022-09-02T05:08:09.991Z,192.37
2022-09-02T05:10:39.125Z,202.20
2022-09-02T05:13:06.966Z,170.23
2022-09-02T05:15:34.249Z,202.43
2022-09-02T05:18:02.217Z,172.52
2022-09-02T05:20:32.218Z,172.20
2022-09-02T05:22:59.495Z,187.10
2022-09-02T05:25:26.633Z,193.70
2022-09-02T05:27:54.343Z,178.90
2022-09-02T05:30:21.870Z,172.45
2022-09-02T05:32:49.891Z,187.87
2022-09-02T05:35:17.031Z,176.05
2022-09-02T05:37:44.543Z,168.50
2022-09-02T05:40:12.344Z,195.80
2022-09-02T05:42:43.473Z,147.07
2022-09-02T05:45:12.040Z,195.35
2022-09-02T05:47:43.934Z,188.40
2022-09-02T05:50:11.138Z,196.98
2022-09-02T05:52:43.156Z,201.65
2022-09-02T05:55:10.298Z,211.43
2022-09-02T05:57:39.373Z,194.93
2022-09-02T06:00:09.767Z,192.70
2022-09-02T06:02:43.844Z,189.88
2022-09-02T06:05:23.263Z,217.68
2022-09-02T06:07:58.129Z,210.77
2022-09-02T06:10:25.317Z,192.27
2022-09-02T06:12:52.904Z,202.05
2022-09-02T06:15:22.786Z,204.55
2022-09-02T06:17:51.835Z,233.30
2022-09-02T06:20:18.886Z,221.52
2022-09-02T06:22:48.523Z,179.43
2022-09-02T06:25:15.431Z,194.35
2022-09-02T06:27:42.371Z,218.98
2022-09-02T06:30:10.029Z,188.48
2022-09-02T06:32:36.938Z,174.70
2022-09-02T06:35:09.910Z,156.53
2022-09-02T06:37:38.042Z,174.38
2022-09-02T06:40:05.895Z,222.37
2022-09-02T06:42:32.824Z,188.38
2022-09-02T06:45:26.256Z,167.35
2022-09-02T06:47:55.114Z,183.00
2022-09-02T06:50:22.147Z,185.65
2022-09-02T06:52:50.039Z,216.10
2022-09-02T06:55:18.089Z,182.65
2022-09-02T06:57:44.979Z,220.73
2022-09-02T07:00:14.011Z,224.45
2022-09-02T07:02:42.599Z,258.08
2022-09-02T07:05:10.059Z,238.55
2022-09-02T07:07:40.468Z,208.85
2022-09-02T07:10:13.861Z,232.75
2022-09-02T07:12:44.595Z,220.90
2022-09-02T07:15:15.013Z,238.48
2022-09-02T07:17:43.195Z,236.23
2022-09-02T07:20:23.453Z,242.55
2022-09-02T07:22:56.140Z,243.23
2022-09-02T07:25:25.342Z,224.77
2022-09-02T07:27:53.156Z,209.05
2022-09-02T07:30:20.217Z,224.07
2022-09-02T07:32:50.791Z,205.43
2022-09-02T07:35:21.283Z,241.32
2022-09-02T07:37:49.320Z,227.27
2022-09-02T07:40:16.696Z,233.68
2022-09-02T07:42:44.248Z,230.20
2022-09-02T07:45:12.814Z,223.45
2022-09-02T07:47:41.487Z,217.77
2022-09-02T07:50:20.781Z,218.30
2022-09-02T07:52:57.176Z,221.05
2022-09-02T07:55:26.358Z,198.82
2022-09-02T07:57:56.607Z,255.27
2022-09-02T08:00:27.586Z,256.40
2022-09-02T08:02:56.601Z,239.57
2022-09-02T08:05:28.966Z,248.35
2022-09-02T08:07:55.965Z,228.73
2022-09-02T08:10:27.099Z,266.65
2022-09-02T08:12:53.966Z,240.32
2022-09-02T08:15:21.528Z,258.20
2022-09-02T08:17:48.711Z,234.40
2022-09-02T08:20:17.434Z,250.20
2022-09-02T08:22:46.722Z,237.85
2022-09-02T08:25:18.974Z,236.45
2022-09-02T08:27:46.265Z,239.10
2022-09-02T08:30:14.778Z,217.02
2022-09-02T08:32:41.904Z,228.35
2022-09-02T08:35:10.161Z,253.40
2022-09-02T08:37:38.053Z,251.68
2022-09-02T08:40:13.386Z,252.07
2022-09-02T08:42:51.153Z,257.67
2022-09-02T08:45:30.492Z,198.25
2022-09-02T08:48:16.186Z,210.93
2022-09-02T08:50:45.335Z,215.35
2022-09-02T08:53:12.230Z,249.70
2022-09-02T08:55:50.743Z,215.50
2022-09-02T08:58:20.617Z,230.47
2022-09-02T09:01:00.624Z,246.48
2022-09-02T09:03:48.831Z,205.63
2022-09-02T09:06:53.931Z,244.45
2022-09-02T09:09:41.056Z,217.88
2022-09-02T09:12:34.419Z,255.03
2022-09-02T09:15:16.699Z,246.25
2022-09-02T09:17:54.155Z,200.05
2022-09-02T09:20:25.315Z,256.42
2022-09-02T09:22:56.861Z,245.18
2022-09-02T09:25:29.693Z,243.07
2022-09-02T09:27:58.027Z,260.42
2022-09-02T09:30:25.466Z,234.98
2022-09-02T09:32:57.412Z,221.90
2022-09-02T09:35:24.822Z,221.67
2022-09-02T09:37:53.034Z,231.82
2022-09-02T09:40:25.859Z,189.43
2022-09-02T09:43:15.347Z,189.38
2022-09-02T09:45:47.947Z,189.73
2022-09-02T09:48:38.050Z,192.52
2022-09-02T09:51:04.818Z,185.18
2022-09-02T09:53:34.073Z,194.85
2022-09-02T09:56:28.335Z,244.00
2022-09-02T09:58:55.216Z,201.00
2022-09-02T10:01:28.139Z,230.68
2022-09-02T10:04:20.786Z,233.98
2022-09-02T10:06:54.590Z,265.88
2022-09-02T10:09:21.368Z,270.70
2022-09-02T10:12:05.018Z,251.07
2022-09-02T10:14:45.876Z,263.80
2022-09-02T10:17:22.195Z,275.75
2022-09-02T10:19:54.929Z,258.02
2022-09-02T10:22:59.595Z,276.50
2022-09-02T10:25:30.392Z,274.10
2022-09-02T10:28:15.875Z,228.53
2022-09-02T10:31:05.581Z,282.97
2022-09-02T10:34:04.926Z,275.67
2022-09-02T10:36:43.965Z,287.40
2022-09-02T10:39:17.686Z,224.03
2022-09-02T10:44:31.276Z,271.97
2022-09-02T10:46:58.110Z,284.88
2022-09-02T10:50:02.511Z,266.52
2022-09-02T10:52:50.865Z,259.02
2022-09-02T10:55:55.115Z,275.65
2022-09-02T10:58:35.135Z,280.17
2022-09-02T11:01:03.150Z,292.70
2022-09-02T11:03:38.306Z,256.63
2022-09-02T11:06:31.677Z,272.45
2022-09-02T11:09:21.226Z,284.23
2022-09-02T11:12:00.108Z,280.92
2022-09-02T11:14:41.576Z,288.65
2022-09-02T11:17:41.253Z,271.03
2022-09-02T11:20:26.807Z,287.83
2022-09-02T11:23:08.586Z,261.23
2022-09-02T11:25:49.346Z,271.97
2022-09-02T11:28:24.192Z,286.27
2022-09-02T11:31:10.319Z,262.03
2022-09-02T11:36:30.941Z,292.92
2022-09-02T11:39:11.886Z,291.45
2022-09-02T11:41:54.520Z,277.70
2022-09-02T11:44:52.744Z,285.55
2022-09-02T11:47:26.237Z,307.35
2022-09-02T11:50:11.581Z,312.67
2022-09-02T11:53:07.561Z,303.90
2022-09-02T11:55:40.019Z,302.40
2022-09-02T11:58:06.875Z,298.45
2022-09-02T12:00:58.361Z,302.38
2022-09-02T12:03:44.156Z,308.05
2022-09-02T12:06:21.407Z,326.33
2022-09-02T12:08:50.051Z,316.90
2022-09-02T12:11:47.889Z,324.05
2022-09-02T12:14:23.916Z,331.00
2022-09-02T12:17:06.019Z,339.73
2022-09-02T12:19:51.661Z,355.42
2022-09-02T12:22:18.890Z,327.20
2022-09-02T12:25:24.797Z,279.45
2022-09-02T12:28:30.909Z,414.30
2022-09-02T12:31:10.223Z,409.23
2022-09-02T12:33:41.146Z,413.65
2022-09-02T12:36:10.925Z,435.52
2022-09-02T12:38:39.532Z,432.48
2022-09-02T12:41:14.866Z,512.25
2022-09-02T12:43:53.150Z,525.13
2022-09-02T12:46:44.323Z,557.47
2022-09-02T12:49:35.651Z,614.25
2022-09-02T12:52:09.231Z,551.23
2022-09-02T12:54:39.024Z,595.83
2022-09-02T12:57:07.997Z,717.83
2022-09-02T12:59:39.995Z,666.58
2022-09-02T13:02:34.273Z,656.53
2022-09-02T13:05:40.335Z,725.17
2022-09-02T13:08:36.593Z,702.70
2022-09-02T13:11:25.301Z,704.85
2022-09-02T13:14:14.914Z,722.50
2022-09-02T13:17:25.775Z,630.72
2022-09-02T13:20:20.246Z,632.80
2022-09-02T13:22:50.414Z,634.45
2022-09-02T13:25:39.277Z,663.83
2022-09-02T13:28:35.746Z,654.42
2022-09-02T13:31:02.934Z,669.73
2022-09-02T13:33:29.842Z,698.35
2022-09-02T13:36:01.003Z,743.73
2022-09-02T13:38:30.255Z,683.58
2022-09-02T13:40:57.116Z,661.15
2022-09-02T13:43:26.977Z,662.38
2022-09-02T13:45:59.550Z,662.20
2022-09-02T13:48:28.907Z,620.70
2022-09-02T13:50:58.177Z,726.45
2022-09-02T13:56:35.837Z,807.50
2022-09-02T13:59:02.872Z,852.55
2022-09-02T14:01:36.217Z,832.97
2022-09-02T14:04:11.595Z,795.42
2022-09-02T14:06:42.501Z,790.83
2022-09-02T14:09:21.058Z,804.30
2022-09-02T14:11:49.556Z,750.35
2022-09-02T14:14:19.954Z,790.80
2022-09-02T14:16:46.879Z,868.85
2022-09-02T14:19:16.646Z,953.45
2022-09-02T14:21:52.799Z,952.45
2022-09-02T14:24:23.662Z,1051.80
2022-09-02T14:26:53.553Z,1202.50
2022-09-02T14:29:21.786Z,1266.15
2022-09-02T14:32:10.586Z,1039.23
2022-09-02T14:34:44.509Z,1013.20
2022-09-02T14:37:29.382Z,799.28
2022-09-02T14:40:08.583Z,881.22
2022-09-02T14:42:43.494Z,891.60
2022-09-02T14:45:11.944Z,861.40
2022-09-02T14:47:40.015Z,882.22
2022-09-02T14:50:15.235Z,848.53
2022-09-02T14:52:48.883Z,832.88
2022-09-02T14:55:46.790Z,1286.45
2022-09-02T14:58:15.034Z,908.13
2022-09-02T15:00:44.747Z,612.25
2022-09-02T15:03:17.066Z,644.88
2022-09-02T15:05:44.770Z,653.33
2022-09-02T15:08:12.487Z,613.33
2022-09-02T15:10:40.651Z,557.92
2022-09-02T15:13:12.092Z,538.78
2022-09-02T15:15:40.083Z,510.55
2022-09-02T15:18:09.213Z,484.90
2022-09-02T15:20:36.415Z,461.88
2022-09-02T15:23:04.026Z,458.77
2022-09-02T15:25:30.860Z,417.13
2022-09-02T15:27:57.754Z,432.47
2022-09-02T15:30:24.624Z,340.50
2022-09-02T15:32:51.766Z,327.85
2022-09-02T15:35:18.641Z,321.50
2022-09-02T15:37:49.183Z,324.08
2022-09-02T15:40:16.136Z,307.20
2022-09-02T15:42:42.958Z,343.23
2022-09-02T15:45:10.401Z,347.77
2022-09-02T15:47:38.057Z,344.90
2022-09-02T15:50:06.020Z,373.37
2022-09-02T15:52:34.899Z,370.13
2022-09-02T15:55:02.310Z,362.38
2022-09-02T15:57:30.839Z,383.38
2022-09-02T15:59:57.698Z,387.35
2022-09-02T16:02:24.539Z,386.70
2022-09-02T16:04:52.389Z,376.52
2022-09-02T16:07:19.671Z,383.58
2022-09-02T16:09:46.458Z,351.98
2022-09-02T16:12:13.324Z,365.53
2022-09-02T16:14:40.150Z,352.85
2022-09-02T16:17:08.777Z,396.98
2022-09-02T16:19:35.642Z,370.17
2022-09-02T16:22:02.523Z,346.70
2022-09-02T16:24:29.423Z,337.55
2022-09-02T16:26:56.295Z,329.70
2022-09-02T16:29:28.167Z,381.38
2022-09-02T16:32:14.503Z,394.15
2022-09-02T16:34:45.295Z,389.90
2022-09-02T16:37:12.084Z,409.17
2022-09-02T16:39:39.532Z,412.90
2022-09-02T16:42:06.810Z,397.17
2022-09-02T16:44:34.153Z,401.35
2022-09-02T16:47:01.162Z,442.77
2022-09-02T16:49:27.943Z,439.77
2022-09-02T16:51:58.337Z,453.88
2022-09-02T16:54:31.236Z,448.73
2022-09-02T16:56:59.542Z,419.42
2022-09-02T16:59:26.487Z,437.20
2022-09-02T17:01:53.381Z,465.33
2022-09-02T17:04:20.163Z,462.95
2022-09-02T17:06:47.128Z,472.08
2022-09-02T17:09:16.214Z,448.10
2022-09-02T17:11:45.055Z,463.17
2022-09-02T17:14:15.245Z,609.60
2022-09-02T17:16:49.257Z,525.00
2022-09-02T17:19:21.347Z,577.22
2022-09-02T17:21:51.581Z,669.15
2022-09-02T17:24:21.139Z,687.15
2022-09-02T17:26:50.908Z,785.17
2022-09-02T17:29:47.532Z,713.90
2022-09-02T17:32:07.454Z,896.90
2022-09-02T17:34:34.397Z,856.55
2022-09-02T17:37:01.135Z,672.70
2022-09-02T17:39:28.184Z,769.97
2022-09-02T17:41:55.124Z,645.92
2022-09-02T17:44:26.402Z,658.55
2022-09-02T17:46:58.279Z,542.67
2022-09-02T17:49:25.639Z,553.78
2022-09-02T17:51:52.555Z,484.70
2022-09-02T17:54:19.599Z,487.20
2022-09-02T17:56:49.196Z,445.40
2022-09-02T17:59:27.988Z,436.08
2022-09-02T18:02:14.573Z,564.43
2022-09-02T18:04:56.355Z,544.78
2022-09-02T18:07:31.127Z,657.80
2022-09-02T18:09:58.045Z,546.90
2022-09-02T18:12:26.634Z,574.25
2022-09-02T18:15:02.210Z,496.27
2022-09-02T18:17:37.718Z,395.10
2022-09-02T18:20:23.610Z,390.58
2022-09-02T18:22:54.108Z,372.17
2022-09-02T18:25:44.110Z,379.35
2022-09-02T18:28:39.867Z,388.20
2022-09-02T18:31:44.438Z,407.67
2022-09-02T18:34:30.623Z,406.23
2022-09-02T18:37:06.543Z,414.10
2022-09-02T18:40:02.503Z,392.98
2022-09-02T18:42:45.454Z,374.27
2022-09-02T18:45:19.461Z,374.83
2022-09-02T18:47:53.759Z,434.17
2022-09-02T18:50:52.200Z,412.40
2022-09-02T18:53:27.131Z,348.80
2022-09-02T18:55:54.750Z,346.35
2022-09-02T18:58:44.483Z,370.83
2022-09-02T19:01:23.306Z,352.75
2022-09-02T19:03:50.941Z,371.80
2022-09-02T19:06:21.394Z,341.50
2022-09-02T19:08:50.120Z,376.73
2022-09-02T19:11:18.440Z,369.52
2022-09-02T19:13:53.543Z,360.45
2022-09-02T19:16:24.779Z,351.77
2022-09-02T19:18:51.923Z,346.92
2022-09-02T19:21:34.422Z,353.13
2022-09-02T19:24:07.313Z,347.77
2022-09-02T19:26:34.685Z,336.20
2022-09-02T19:29:04.129Z,367.63
2022-09-02T19:31:31.579Z,353.85
2022-09-02T19:34:01.634Z,353.02
2022-09-02T19:36:31.628Z,358.88
2022-09-02T19:38:59.844Z,325.27
2022-09-02T19:41:27.910Z,310.52
2022-09-02T19:43:55.331Z,322.60
2022-09-02T19:46:59.748Z,334.73
2022-09-02T19:49:09.143Z,376.45
2022-09-02T19:51:36.254Z,357.03
2022-09-02T19:54:03.200Z,368.50
2022-09-02T19:56:30.138Z,325.67
2022-09-02T19:58:57.059Z,340.67
2022-09-02T20:01:23.908Z,344.00
2022-09-02T20:03:50.725Z,326.23
2022-09-02T20:06:17.736Z,329.33
2022-09-02T20:08:45.663Z,345.73
2022-09-02T20:11:12.514Z,370.67
2022-09-02T20:13:41.651Z,322.88
2022-09-02T20:16:17.684Z,302.47
2022-09-02T20:18:45.335Z,342.10
2022-09-02T20:21:19.295Z,349.27
2022-09-02T20:23:46.160Z,331.15
2022-09-02T20:26:24.346Z,354.27
2022-09-02T20:29:03.562Z,336.55
2022-09-02T20:32:03.228Z,351.13
2022-09-02T20:34:42.036Z,358.75
2022-09-02T20:37:38.345Z,346.97
2022-09-02T20:40:45.774Z,359.80
2022-09-02T20:43:39.456Z,338.75
2022-09-02T20:46:22.371Z,344.15
2022-09-02T20:48:57.979Z,354.05
2022-09-02T20:51:35.101Z,365.80
2022-09-02T20:54:29.911Z,342.73
2022-09-02T20:57:21.672Z,314.63
2022-09-02T21:00:02.158Z,305.98
2022-09-02T21:02:37.879Z,261.30
2022-09-02T21:05:15.201Z,263.35
2022-09-02T21:07:58.838Z,264.53
2022-09-02T21:10:41.931Z,292.40
2022-09-02T21:13:19.090Z,323.45
2022-09-02T21:15:56.292Z,314.02
2022-09-02T21:18:45.339Z,322.10
2022-09-02T21:21:43.021Z,302.50
2022-09-02T21:24:22.915Z,364.30
2022-09-02T21:27:06.123Z,343.60
2022-09-02T21:29:42.024Z,355.48
2022-09-02T21:32:15.251Z,361.42
2022-09-02T21:34:52.827Z,334.85
2022-09-02T21:37:23.011Z,377.25
2022-09-02T21:40:02.142Z,384.67
2022-09-02T21:42:54.367Z,377.90
2022-09-02T21:45:39.753Z,373.90
2022-09-02T21:48:18.415Z,387.13
2022-09-02T21:51:10.844Z,376.23
2022-09-02T21:53:50.592Z,357.33
2022-09-02T21:57:02.210Z,325.73
2022-09-02T21:59:55.098Z,351.05
2022-09-02T22:02:54.821Z,365.40
2022-09-02T22:05:24.553Z,381.50
2022-09-02T22:08:19.657Z,375.67
2022-09-02T22:11:20.166Z,355.45
2022-09-02T22:13:48.203Z,368.95
2022-09-02T22:16:45.949Z,369.13
2022-09-02T22:19:13.694Z,364.98
2022-09-02T22:21:48.460Z,380.85
2022-09-02T22:24:22.387Z,299.90
2022-09-02T22:26:58.436Z,309.55
2022-09-02T22:29:50.894Z,322.92
2022-09-02T22:32:21.751Z,319.70
2022-09-02T22:35:09.367Z,308.83
2022-09-02T22:37:58.255Z,321.77
2022-09-02T22:40:28.216Z,356.02
2022-09-02T22:43:02.197Z,320.40
2022-09-02T22:45:55.327Z,344.20
2022-09-02T22:48:53.870Z,353.55
2022-09-02T22:51:48.154Z,337.77
2022-09-02T22:54:15.085Z,352.25
2022-09-02T22:56:47.876Z,348.80
2022-09-02T22:59:53.269Z,329.08
2022-09-02T23:02:56.538Z,335.67
2022-09-02T23:05:45.103Z,351.30
2022-09-02T23:08:14.115Z,318.80
2022-09-02T23:10:56.905Z,337.73
2022-09-02T23:13:41.531Z,342.95
2022-09-02T23:16:29.827Z,348.60
2022-09-02T23:19:03.936Z,344.23
2022-09-02T23:21:38.246Z,333.88
2022-09-02T23:24:26.010Z,332.08
2022-09-02T23:27:11.656Z,319.83
2022-09-02T23:29:41.400Z,333.23
2022-09-02T23:32:08.574Z,335.25
2022-09-02T23:34:44.667Z,279.45
2022-09-02T23:37:49.008Z,271.05
2022-09-02T23:40:28.102Z,304.20
2022-09-02T23:42:59.257Z,335.13
2022-09-02T23:45:29.289Z,339.38
2022-09-02T23:48:28.700Z,351.20
2022-09-02T23:51:10.414Z,349.00
2022-09-02T23:54:03.650Z,356.48
2022-09-02T23:56:46.381Z,365.17
2022-09-02T23:59:28.471Z,370.60
